createdAt,value
2022-08-31T00:00:13.752Z,55.62
2022-08-31T00:02:59.408Z,55.99
2022-08-31T00:05:26.366Z,56.06
2022-08-31T00:07:55.486Z,56.15
2022-08-31T00:10:32.334Z,56.44
2022-08-31T00:13:06.773Z,56.49
2022-08-31T00:15:35.595Z,56.57
2022-08-31T00:18:03.599Z,56.84
2022-08-31T00:20:33.784Z,56.76
2022-08-31T00:23:06.360Z,56.73
2022-08-31T00:25:34.354Z,56.96
2022-08-31T00:28:01.940Z,57.08
2022-08-31T00:30:29.916Z,57.46
2022-08-31T00:32:58.447Z,57.79
2022-08-31T00:35:27.577Z,57.57
2022-08-31T00:37:54.713Z,57.56
2022-08-31T00:40:21.901Z,57.42
2022-08-31T00:42:51.493Z,57.50
2022-08-31T00:45:18.848Z,57.76
2022-08-31T00:47:45.666Z,57.49
2022-08-31T00:50:15.329Z,57.76
2022-08-31T00:52:46.647Z,57.51
2022-08-31T00:55:18.129Z,57.67
2022-08-31T00:57:48.083Z,57.90
2022-08-31T01:00:19.267Z,57.94
2022-08-31T01:02:47.058Z,58.04
2022-08-31T01:05:14.986Z,58.17
2022-08-31T01:07:42.523Z,58.22
2022-08-31T01:10:10.677Z,58.18
2022-08-31T01:12:37.838Z,58.30
2022-08-31T01:15:08.717Z,58.42
2022-08-31T01:17:36.735Z,58.92
2022-08-31T01:20:12.367Z,59.09
2022-08-31T01:22:44.923Z,59.24
2022-08-31T01:25:13.696Z,59.58
2022-08-31T01:27:40.835Z,59.79
2022-08-31T01:30:11.421Z,60.14
2022-08-31T01:32:39.983Z,60.00
2022-08-31T01:35:07.621Z,60.07
2022-08-31T01:37:39.054Z,60.26
2022-08-31T01:40:07.478Z,60.61
2022-08-31T01:42:34.616Z,60.60
2022-08-31T01:45:02.528Z,60.63
2022-08-31T01:47:31.887Z,60.84
2022-08-31T01:49:58.732Z,60.86
2022-08-31T01:52:28.020Z,61.25
2022-08-31T01:54:55.966Z,61.45
2022-08-31T01:57:30.879Z,61.79
2022-08-31T02:00:05.632Z,61.79
2022-08-31T02:02:32.642Z,61.90
2022-08-31T02:04:59.623Z,62.07
2022-08-31T02:07:27.103Z,61.97
2022-08-31T02:09:54.779Z,61.97
2022-08-31T02:12:21.671Z,62.17
2022-08-31T02:14:48.640Z,62.45
2022-08-31T02:17:16.400Z,62.26
2022-08-31T02:19:43.386Z,62.44
2022-08-31T02:22:10.260Z,62.66
2022-08-31T02:24:37.094Z,62.80
2022-08-31T02:27:04.116Z,62.66
2022-08-31T02:29:31.215Z,62.44
2022-08-31T02:31:58.679Z,62.55
2022-08-31T02:34:25.617Z,62.89
2022-08-31T02:36:52.724Z,63.11
2022-08-31T02:39:19.911Z,63.19
2022-08-31T02:41:47.348Z,63.14
2022-08-31T02:44:14.567Z,63.12
2022-08-31T02:46:44.577Z,63.25
2022-08-31T02:49:11.494Z,63.11
2022-08-31T02:51:42.446Z,63.11
2022-08-31T02:54:09.476Z,63.37
2022-08-31T02:56:36.448Z,63.54
2022-08-31T02:59:03.667Z,63.45
2022-08-31T03:01:30.607Z,63.59
2022-08-31T03:03:57.709Z,63.53
2022-08-31T03:06:24.493Z,63.56
2022-08-31T03:08:51.422Z,63.52
2022-08-31T03:11:19.343Z,63.45
2022-08-31T03:13:46.314Z,63.24
2022-08-31T03:16:15.156Z,63.13
2022-08-31T03:18:42.449Z,63.08
2022-08-31T03:21:09.282Z,63.25
2022-08-31T03:23:36.887Z,62.85
2022-08-31T03:26:05.883Z,62.83
2022-08-31T03:28:34.432Z,62.92
2022-08-31T03:31:01.510Z,62.61
2022-08-31T03:33:28.495Z,62.69
2022-08-31T03:35:55.361Z,62.61
2022-08-31T03:38:22.125Z,62.62
2022-08-31T03:40:50.935Z,62.61
2022-08-31T03:43:18.049Z,62.67
2022-08-31T03:45:44.893Z,62.79
2022-08-31T03:48:13.171Z,62.53
2022-08-31T03:50:41.600Z,62.62
2022-08-31T03:53:09.483Z,62.44
2022-08-31T03:55:39.283Z,62.40
2022-08-31T03:58:07.479Z,62.13
2022-08-31T04:00:34.976Z,62.08
2022-08-31T04:03:02.433Z,62.22
2022-08-31T04:05:31.170Z,62.21
2022-08-31T04:07:58.495Z,62.09
2022-08-31T04:10:25.324Z,62.06
2022-08-31T04:12:52.493Z,62.13
2022-08-31T04:15:20.459Z,61.81
2022-08-31T04:17:47.877Z,61.69
2022-08-31T04:20:16.511Z,61.59
2022-08-31T04:22:43.391Z,61.71
2022-08-31T04:25:10.560Z,61.05
2022-08-31T04:27:40.473Z,60.94
2022-08-31T04:30:09.478Z,60.64
2022-08-31T04:32:36.499Z,60.68
2022-08-31T04:35:04.427Z,59.97
2022-08-31T04:37:43.410Z,58.94
2022-08-31T04:40:20.384Z,58.52
2022-08-31T04:42:52.656Z,58.42
2022-08-31T04:45:19.537Z,58.14
2022-08-31T04:47:46.435Z,58.00
2022-08-31T04:50:16.637Z,57.83
2022-08-31T04:52:45.205Z,57.64
2022-08-31T04:55:30.571Z,57.07
2022-08-31T04:57:57.492Z,56.35
2022-08-31T05:00:24.938Z,55.59
2022-08-31T05:02:53.587Z,55.02
2022-08-31T05:05:20.406Z,55.39
2022-08-31T05:07:47.306Z,55.17
2022-08-31T05:10:15.107Z,55.78
2022-08-31T05:12:41.939Z,56.03
2022-08-31T05:15:09.050Z,56.15
2022-08-31T05:17:35.992Z,56.50
2022-08-31T05:20:05.397Z,56.66
2022-08-31T05:22:32.503Z,57.00
2022-08-31T05:24:59.524Z,56.82
2022-08-31T05:27:26.363Z,56.75
2022-08-31T05:29:53.292Z,56.90
2022-08-31T05:32:20.091Z,56.66
2022-08-31T05:34:47.111Z,56.95
2022-08-31T05:37:13.983Z,57.08
2022-08-31T05:39:41.000Z,57.29
2022-08-31T05:42:07.892Z,57.38
2022-08-31T05:44:36.315Z,58.01
2022-08-31T05:47:07.105Z,58.26
2022-08-31T05:49:35.214Z,58.63
2022-08-31T05:52:03.071Z,58.64
2022-08-31T05:54:30.226Z,58.72
2022-08-31T05:56:59.905Z,58.79
2022-08-31T05:59:29.705Z,58.74
2022-08-31T06:01:57.458Z,58.76
2022-08-31T06:04:24.516Z,59.03
2022-08-31T06:06:52.346Z,58.80
2022-08-31T06:09:19.616Z,58.99
2022-08-31T06:11:46.935Z,58.62
2022-08-31T06:14:13.850Z,58.55
2022-08-31T06:16:44.441Z,58.38
2022-08-31T06:19:11.778Z,57.77
2022-08-31T06:21:49.941Z,57.31
2022-08-31T06:24:18.710Z,56.91
2022-08-31T06:26:56.835Z,55.95
2022-08-31T06:29:25.242Z,54.84
2022-08-31T06:31:52.285Z,53.91
2022-08-31T06:34:20.367Z,53.36
2022-08-31T06:36:49.852Z,53.13
2022-08-31T06:39:17.043Z,53.38
2022-08-31T06:41:44.057Z,54.07
2022-08-31T06:44:14.149Z,54.01
2022-08-31T06:46:42.258Z,54.10
2022-08-31T06:49:14.916Z,54.26
2022-08-31T06:51:41.982Z,53.93
2022-08-31T06:54:28.576Z,52.87
2022-08-31T06:57:00.302Z,52.60
2022-08-31T06:59:29.790Z,52.04
2022-08-31T07:02:01.650Z,51.59
2022-08-31T07:04:34.801Z,51.99
2022-08-31T07:07:03.690Z,52.41
2022-08-31T07:09:30.601Z,52.01
2022-08-31T07:11:57.476Z,50.06
2022-08-31T07:14:26.983Z,48.33
2022-08-31T07:16:56.801Z,47.12
2022-08-31T07:19:25.095Z,47.51
2022-08-31T07:21:54.885Z,47.13
2022-08-31T07:24:25.889Z,47.61
2022-08-31T07:27:04.537Z,47.96
2022-08-31T07:29:37.803Z,48.33
2022-08-31T07:32:04.785Z,49.00
2022-08-31T07:34:33.784Z,49.67
2022-08-31T07:37:19.757Z,50.19
2022-08-31T07:40:07.743Z,50.73
2022-08-31T07:42:39.737Z,50.82
2022-08-31T07:45:12.659Z,51.15
2022-08-31T07:47:47.180Z,51.14
2022-08-31T07:50:17.388Z,51.20
2022-08-31T07:52:54.373Z,51.46
2022-08-31T07:55:23.625Z,52.03
2022-08-31T07:57:53.554Z,52.43
2022-08-31T08:00:29.095Z,52.70
2022-08-31T08:02:56.894Z,53.07
2022-08-31T08:05:28.811Z,53.29
2022-08-31T08:08:11.868Z,53.79
2022-08-31T08:10:46.643Z,53.82
2022-08-31T08:13:20.453Z,53.19
2022-08-31T08:15:52.094Z,52.67
2022-08-31T08:18:19.588Z,52.74
2022-08-31T08:20:46.768Z,52.33
2022-08-31T08:23:18.299Z,52.37
2022-08-31T08:25:48.056Z,52.55
2022-08-31T08:31:05.940Z,52.08
2022-08-31T08:33:35.439Z,51.45
2022-08-31T08:36:07.928Z,51.13
2022-08-31T08:38:39.308Z,50.88
2022-08-31T08:41:13.239Z,51.11
2022-08-31T08:43:43.890Z,50.84
2022-08-31T08:46:31.728Z,50.70
2022-08-31T08:49:15.198Z,50.53
2022-08-31T08:51:42.991Z,50.30
2022-08-31T08:54:19.401Z,49.92
2022-08-31T08:56:49.420Z,49.00
2022-08-31T08:59:19.992Z,47.46
2022-08-31T09:01:51.571Z,45.78
2022-08-31T09:04:18.408Z,44.08
2022-08-31T09:07:09.351Z,41.28
2022-08-31T09:09:57.503Z,41.05
2022-08-31T09:12:31.912Z,42.19
2022-08-31T09:15:28.436Z,42.95
2022-08-31T09:18:13.720Z,43.37
2022-08-31T09:20:41.361Z,44.25
2022-08-31T09:23:08.269Z,45.16
2022-08-31T09:25:59.072Z,46.31
2022-08-31T09:28:36.139Z,48.30
2022-08-31T09:31:03.818Z,49.11
2022-08-31T09:33:34.531Z,50.41
2022-08-31T09:36:18.430Z,51.21
2022-08-31T09:38:47.231Z,51.18
2022-08-31T09:41:29.065Z,50.44
2022-08-31T09:44:47.825Z,49.86
2022-08-31T09:47:30.623Z,47.89
2022-08-31T09:49:58.047Z,46.42
2022-08-31T09:52:50.014Z,44.21
2022-08-31T09:55:25.004Z,43.64
2022-08-31T09:58:03.138Z,43.78
2022-08-31T10:00:39.926Z,43.79
2022-08-31T10:03:09.961Z,44.07
2022-08-31T10:05:43.625Z,43.88
2022-08-31T10:08:33.946Z,43.80
2022-08-31T10:11:12.488Z,44.06
2022-08-31T10:13:46.456Z,43.74
2022-08-31T10:16:30.551Z,44.02
2022-08-31T10:19:06.638Z,45.18
2022-08-31T10:21:44.106Z,45.49
2022-08-31T10:24:33.744Z,45.84
2022-08-31T10:27:31.606Z,45.09
2022-08-31T10:30:02.897Z,44.67
2022-08-31T10:32:53.375Z,44.11
2022-08-31T10:35:46.972Z,44.05
2022-08-31T10:38:26.422Z,43.42
2022-08-31T10:41:11.957Z,43.67
2022-08-31T10:43:49.108Z,43.47
2022-08-31T10:46:16.752Z,43.38
2022-08-31T10:48:47.359Z,43.11
2022-08-31T10:51:22.480Z,43.30
2022-08-31T10:54:28.929Z,43.77
2022-08-31T10:57:21.398Z,44.93
2022-08-31T10:59:55.828Z,46.06
2022-08-31T11:02:55.663Z,49.03
2022-08-31T11:05:30.214Z,51.29
2022-08-31T11:08:32.208Z,51.79
2022-08-31T11:11:00.679Z,51.14
2022-08-31T11:13:51.330Z,50.39
2022-08-31T11:16:36.788Z,49.81
2022-08-31T11:19:19.708Z,49.20
2022-08-31T11:22:08.367Z,48.52
2022-08-31T11:25:03.492Z,47.96
2022-08-31T11:27:39.781Z,49.10
2022-08-31T11:30:26.908Z,49.54
2022-08-31T11:32:59.716Z,48.75
2022-08-31T11:36:20.252Z,48.41
2022-08-31T11:39:05.565Z,47.90
2022-08-31T11:41:51.676Z,47.28
2022-08-31T11:44:30.997Z,47.62
2022-08-31T11:47:29.270Z,48.08
2022-08-31T11:50:04.048Z,47.97
2022-08-31T11:52:48.634Z,48.32
2022-08-31T11:55:23.590Z,49.08
2022-08-31T11:58:10.279Z,49.73
2022-08-31T12:00:57.456Z,49.90
2022-08-31T12:03:38.779Z,49.85
2022-08-31T12:06:09.249Z,48.69
2022-08-31T12:08:52.536Z,48.27
2022-08-31T12:11:37.236Z,47.98
2022-08-31T12:14:29.648Z,48.63
2022-08-31T12:17:09.724Z,48.78
2022-08-31T12:20:02.439Z,47.80
2022-08-31T12:23:30.061Z,47.02
2022-08-31T12:26:24.223Z,46.15
2022-08-31T12:28:51.012Z,46.11
2022-08-31T12:31:18.808Z,46.09
2022-08-31T12:34:08.266Z,46.11
2022-08-31T12:36:36.664Z,46.17
2022-08-31T12:39:10.045Z,46.08
2022-08-31T12:41:47.155Z,46.40
2022-08-31T12:44:45.614Z,45.94
2022-08-31T12:47:43.299Z,45.97
2022-08-31T12:50:37.825Z,44.53
2022-08-31T12:53:13.824Z,43.88
2022-08-31T12:55:46.735Z,43.38
2022-08-31T12:58:53.172Z,43.21
2022-08-31T13:01:24.107Z,42.37
2022-08-31T13:03:55.171Z,42.63
2022-08-31T13:06:36.542Z,42.63
2022-08-31T13:09:05.723Z,42.55
2022-08-31T13:11:55.219Z,42.90
2022-08-31T13:14:26.861Z,42.56
2022-08-31T13:17:03.724Z,42.36
2022-08-31T13:19:33.361Z,42.40
2022-08-31T13:22:17.291Z,42.53
2022-08-31T13:24:53.788Z,42.42
2022-08-31T13:27:27.205Z,42.41
2022-08-31T13:29:59.387Z,42.72
2022-08-31T13:32:34.086Z,42.42
2022-08-31T13:35:09.234Z,42.15
2022-08-31T13:38:05.119Z,41.26
2022-08-31T13:40:39.685Z,41.18
2022-08-31T13:43:10.112Z,41.37
2022-08-31T13:45:57.902Z,41.55
2022-08-31T13:48:32.683Z,41.81
2022-08-31T13:51:13.169Z,42.44
2022-08-31T13:54:06.077Z,42.77
2022-08-31T13:56:51.451Z,43.27
2022-08-31T13:59:24.327Z,43.20
2022-08-31T14:02:04.914Z,43.70
2022-08-31T14:05:38.454Z,44.29
2022-08-31T14:08:09.463Z,44.16
2022-08-31T14:10:48.082Z,44.04
2022-08-31T14:13:14.892Z,44.02
2022-08-31T14:15:56.581Z,44.67
2022-08-31T14:18:26.022Z,45.33
2022-08-31T14:21:21.626Z,45.82
2022-08-31T14:24:00.544Z,45.91
2022-08-31T14:26:30.541Z,45.88
2022-08-31T14:29:00.601Z,45.78
2022-08-31T14:31:37.560Z,45.75
2022-08-31T14:34:24.993Z,45.94
2022-08-31T14:37:08.309Z,45.60
2022-08-31T14:39:45.630Z,45.58
2022-08-31T14:42:29.381Z,45.94
2022-08-31T14:45:04.008Z,46.28
2022-08-31T14:47:42.787Z,46.24
2022-08-31T14:50:12.567Z,46.47
2022-08-31T14:52:46.339Z,46.43
2022-08-31T14:55:14.370Z,46.30
2022-08-31T14:57:46.706Z,46.32
2022-08-31T15:00:23.403Z,46.99
2022-08-31T15:02:57.617Z,47.28
2022-08-31T15:05:25.864Z,45.93
2022-08-31T15:07:56.980Z,45.61
2022-08-31T15:10:25.943Z,45.25
2022-08-31T15:12:53.842Z,45.36
2022-08-31T15:15:21.090Z,45.43
2022-08-31T15:17:51.507Z,45.34
2022-08-31T15:20:23.409Z,45.57
2022-08-31T15:22:50.702Z,45.87
2022-08-31T15:25:19.999Z,45.77
2022-08-31T15:27:49.515Z,46.10
2022-08-31T15:30:19.232Z,46.03
2022-08-31T15:32:48.316Z,46.23
2022-08-31T15:35:23.538Z,46.26
2022-08-31T15:38:00.591Z,46.32
2022-08-31T15:40:39.074Z,46.42
2022-08-31T15:43:09.702Z,46.54
2022-08-31T15:45:37.364Z,46.95
2022-08-31T15:48:23.494Z,47.24
2022-08-31T15:51:00.368Z,47.79
2022-08-31T15:53:29.519Z,47.98
2022-08-31T15:56:08.323Z,48.32
2022-08-31T15:58:39.121Z,48.71
2022-08-31T16:01:18.306Z,48.51
2022-08-31T16:04:07.020Z,48.52
2022-08-31T16:06:35.039Z,48.86
2022-08-31T16:09:03.738Z,48.64
2022-08-31T16:11:37.000Z,48.67
2022-08-31T16:14:05.380Z,48.99
2022-08-31T16:16:35.519Z,48.76
2022-08-31T16:19:04.364Z,48.72
2022-08-31T16:21:35.752Z,48.62
2022-08-31T16:24:08.049Z,48.51
2022-08-31T16:26:42.662Z,48.15
2022-08-31T16:29:14.609Z,47.76
2022-08-31T16:31:43.732Z,47.01
2022-08-31T16:34:10.754Z,46.45
2022-08-31T16:36:37.680Z,46.20
2022-08-31T16:39:04.615Z,46.37
2022-08-31T16:41:33.575Z,46.15
2022-08-31T16:44:19.012Z,46.47
2022-08-31T16:46:47.434Z,46.51
2022-08-31T16:49:33.017Z,46.46
2022-08-31T16:52:11.071Z,46.13
2022-08-31T16:54:47.597Z,46.16
2022-08-31T16:57:17.243Z,46.27
2022-08-31T16:59:44.939Z,46.67
2022-08-31T17:02:13.810Z,46.57
2022-08-31T17:04:58.076Z,46.49
2022-08-31T17:07:25.325Z,46.19
2022-08-31T17:09:56.694Z,46.13
2022-08-31T17:12:26.195Z,46.50
2022-08-31T17:14:53.302Z,46.71
2022-08-31T17:17:23.509Z,46.78
2022-08-31T17:19:53.314Z,46.87
2022-08-31T17:22:26.934Z,46.89
2022-08-31T17:24:59.396Z,46.95
2022-08-31T17:27:27.589Z,46.57
2022-08-31T17:30:00.903Z,46.86
2022-08-31T17:32:28.739Z,46.59
2022-08-31T17:34:56.583Z,46.90
2022-08-31T17:37:27.230Z,46.61
2022-08-31T17:39:57.743Z,46.68
2022-08-31T17:42:27.328Z,46.68
2022-08-31T17:44:55.619Z,47.08
2022-08-31T17:47:25.489Z,46.79
2022-08-31T17:49:53.055Z,46.98
2022-08-31T17:52:21.959Z,46.51
2022-08-31T17:54:51.119Z,46.65
2022-08-31T17:57:22.381Z,46.52
2022-08-31T17:59:49.318Z,46.31
2022-08-31T18:02:22.891Z,46.53
2022-08-31T18:04:52.180Z,46.21
2022-08-31T18:07:19.822Z,46.24
2022-08-31T18:09:47.108Z,46.21
2022-08-31T18:12:22.070Z,46.12
2022-08-31T18:14:49.894Z,46.61
2022-08-31T18:17:17.289Z,46.58
2022-08-31T18:19:47.374Z,46.07
2022-08-31T18:22:14.867Z,46.68
2022-08-31T18:24:42.521Z,46.37
2022-08-31T18:27:11.186Z,46.41
2022-08-31T18:29:39.520Z,46.41
2022-08-31T18:32:07.881Z,46.62
2022-08-31T18:34:39.146Z,46.14
2022-08-31T18:37:08.017Z,46.74
2022-08-31T18:39:54.797Z,46.62
2022-08-31T18:42:44.180Z,46.51
2022-08-31T18:45:18.508Z,46.68
2022-08-31T18:48:13.743Z,47.12
2022-08-31T18:50:37.224Z,47.04
2022-08-31T18:53:10.887Z,47.11
2022-08-31T18:55:43.204Z,46.97
2022-08-31T18:58:10.368Z,46.75
2022-08-31T19:00:37.758Z,46.63
2022-08-31T19:03:04.792Z,46.91
2022-08-31T19:05:32.777Z,46.96
2022-08-31T19:08:00.616Z,47.12
2022-08-31T19:10:54.082Z,47.28
2022-08-31T19:13:21.146Z,47.82
2022-08-31T19:15:48.260Z,47.59
2022-08-31T19:18:15.501Z,47.82
2022-08-31T19:20:42.464Z,48.17
2022-08-31T19:23:09.283Z,48.29
2022-08-31T19:25:42.532Z,48.21
2022-08-31T19:28:10.358Z,48.28
2022-08-31T19:30:38.355Z,48.64
2022-08-31T19:33:08.445Z,48.65
2022-08-31T19:35:36.513Z,48.72
2022-08-31T19:38:03.596Z,48.89
2022-08-31T19:40:36.695Z,49.15
2022-08-31T19:45:51.954Z,49.58
2022-08-31T19:48:23.939Z,49.89
2022-08-31T19:50:52.312Z,50.24
2022-08-31T19:53:21.861Z,50.17
2022-08-31T19:55:54.919Z,50.28
2022-08-31T19:58:26.551Z,50.82
2022-08-31T20:01:04.267Z,50.54
2022-08-31T20:03:34.252Z,50.84
2022-08-31T20:06:12.646Z,51.31
2022-08-31T20:08:41.273Z,50.98
2022-08-31T20:11:09.624Z,51.26
2022-08-31T20:13:38.550Z,51.40
2022-08-31T20:16:06.344Z,51.46
2022-08-31T20:18:37.482Z,51.17
2022-08-31T20:21:16.938Z,51.72
2022-08-31T20:23:48.246Z,51.55
2022-08-31T20:26:17.315Z,52.13
2022-08-31T20:28:46.846Z,52.06
2022-08-31T20:31:14.179Z,51.74
2022-08-31T20:33:42.341Z,52.19
2022-08-31T20:36:33.538Z,52.09
2022-08-31T20:39:02.776Z,52.05
2022-08-31T20:41:36.115Z,52.09
2022-08-31T20:44:12.014Z,52.35
2022-08-31T20:47:05.283Z,51.97
2022-08-31T20:49:35.790Z,52.36
2022-08-31T20:52:03.625Z,52.20
2022-08-31T20:54:31.708Z,52.38
2022-08-31T20:57:00.967Z,52.26
2022-08-31T20:59:27.919Z,52.48
2022-08-31T21:02:02.175Z,52.68
2022-08-31T21:04:30.703Z,52.58
2022-08-31T21:06:59.846Z,52.38
2022-08-31T21:09:27.428Z,52.39
2022-08-31T21:11:56.146Z,52.59
2022-08-31T21:14:27.147Z,52.15
2022-08-31T21:16:55.642Z,52.49
2022-08-31T21:19:24.403Z,52.52
2022-08-31T21:21:55.951Z,52.39
2022-08-31T21:24:23.035Z,52.26
2022-08-31T21:26:57.274Z,52.40
2022-08-31T21:29:24.056Z,52.65
2022-08-31T21:31:58.303Z,52.44
2022-08-31T21:34:29.823Z,52.79
2022-08-31T21:36:56.770Z,52.84
2022-08-31T21:39:25.052Z,52.92
2022-08-31T21:41:52.032Z,52.76
2022-08-31T21:44:23.072Z,53.12
2022-08-31T21:46:51.019Z,53.54
2022-08-31T21:49:22.936Z,53.75
2022-08-31T21:51:54.678Z,53.92
2022-08-31T21:54:27.351Z,53.95
2022-08-31T21:57:04.356Z,54.00
2022-08-31T21:59:35.239Z,54.13
2022-08-31T22:02:06.925Z,54.07
2022-08-31T22:04:38.500Z,54.33
2022-08-31T22:07:07.826Z,54.67
2022-08-31T22:09:36.903Z,54.81
2022-08-31T22:12:06.696Z,55.04
2022-08-31T22:14:37.362Z,55.36
2022-08-31T22:17:07.160Z,55.53
2022-08-31T22:19:38.195Z,55.63
2022-08-31T22:22:09.250Z,55.61
2022-08-31T22:24:40.478Z,55.76
2022-08-31T22:27:09.893Z,56.00
2022-08-31T22:29:38.220Z,56.47
2022-08-31T22:32:10.216Z,56.42
2022-08-31T22:34:39.049Z,56.45
2022-08-31T22:37:06.426Z,56.93
2022-08-31T22:39:33.346Z,56.93
2022-08-31T22:42:01.654Z,57.12
2022-08-31T22:44:32.408Z,57.16
2022-08-31T22:46:59.475Z,57.41
2022-08-31T22:49:27.173Z,57.55
2022-08-31T22:51:54.938Z,57.28
2022-08-31T22:54:23.184Z,57.62
2022-08-31T22:56:50.188Z,57.66
2022-08-31T22:59:24.858Z,58.28
2022-08-31T23:01:55.023Z,58.29
2022-08-31T23:04:24.672Z,58.52
2022-08-31T23:06:52.777Z,58.21
2022-08-31T23:09:26.666Z,58.49
2022-08-31T23:11:58.200Z,58.50
2022-08-31T23:14:25.048Z,58.69
2022-08-31T23:16:58.063Z,58.56
2022-08-31T23:19:36.942Z,58.68
2022-08-31T23:22:09.519Z,58.68
2022-08-31T23:24:47.078Z,58.63
2022-08-31T23:27:19.519Z,58.44
2022-08-31T23:29:52.571Z,58.46
2022-08-31T23:32:21.996Z,58.49
2022-08-31T23:34:52.844Z,58.25
2022-08-31T23:37:23.168Z,58.17
2022-08-31T23:39:54.449Z,58.03
2022-08-31T23:42:23.639Z,58.02
2022-08-31T23:44:51.136Z,58.05
2022-08-31T23:47:23.778Z,58.03
2022-08-31T23:49:51.418Z,58.25
2022-08-31T23:52:26.291Z,58.25
2022-08-31T23:54:57.768Z,58.14
2022-08-31T23:57:32.264Z,58.29
